sensor_id;sensor_type;location;lat;lon;timestamp;temperature;humidity
16060;DHT22;8134;49.552;7.632;2022-08-01T06:51:25;22.70;95.90
16060;DHT22;8134;49.552;7.632;2022-08-01T06:53:51;22.80;95.50
16060;DHT22;8134;49.552;7.632;2022-08-01T06:56:16;22.90;94.40
16060;DHT22;8134;49.552;7.632;2022-08-01T06:58:42;22.90;94.70
16060;DHT22;8134;49.552;7.632;2022-08-01T07:01:07;23.00;94.80
16060;DHT22;8134;49.552;7.632;2022-08-01T07:03:33;23.10;94.10
16060;DHT22;8134;49.552;7.632;2022-08-01T07:05:59;23.20;94.20
16060;DHT22;8134;49.552;7.632;2022-08-01T07:08:25;23.20;94.00
16060;DHT22;8134;49.552;7.632;2022-08-01T07:10:50;23.30;93.90
16060;DHT22;8134;49.552;7.632;2022-08-01T07:13:16;23.40;93.80
16060;DHT22;8134;49.552;7.632;2022-08-01T07:15:46;23.40;93.10
16060;DHT22;8134;49.552;7.632;2022-08-01T07:18:11;23.50;93.40
16060;DHT22;8134;49.552;7.632;2022-08-01T07:20:37;23.50;92.70
16060;DHT22;8134;49.552;7.632;2022-08-01T07:23:02;23.40;92.70
16060;DHT22;8134;49.552;7.632;2022-08-01T07:25:28;23.40;93.00
16060;DHT22;8134;49.552;7.632;2022-08-01T07:27:54;23.50;93.20
16060;DHT22;8134;49.552;7.632;2022-08-01T07:30:19;23.60;93.10
16060;DHT22;8134;49.552;7.632;2022-08-01T07:32:45;23.70;92.50
16060;DHT22;8134;49.552;7.632;2022-08-01T07:35:10;23.70;92.20
16060;DHT22;8134;49.552;7.632;2022-08-01T07:37:36;23.70;92.00
16060;DHT22;8134;49.552;7.632;2022-08-01T07:40:02;23.70;92.10
16060;DHT22;8134;49.552;7.632;2022-08-01T07:42:29;23.70;92.20
16060;DHT22;8134;49.552;7.632;2022-08-01T07:44:55;23.80;92.50
16060;DHT22;8134;49.552;7.632;2022-08-01T07:47:24;23.90;92.30
16060;DHT22;8134;49.552;7.632;2022-08-01T07:49:49;24.00;92.10
16060;DHT22;8134;49.552;7.632;2022-08-01T07:52:15;24.00;91.70
16060;DHT22;8134;49.552;7.632;2022-08-01T07:54:40;24.10;91.80
16060;DHT22;8134;49.552;7.632;2022-08-01T07:57:06;24.10;91.40
16060;DHT22;8134;49.552;7.632;2022-08-01T07:59:32;24.00;91.40
16060;DHT22;8134;49.552;7.632;2022-08-01T08:01:58;24.00;91.40
16060;DHT22;8134;49.552;7.632;2022-08-01T08:04:23;24.00;91.70
16060;DHT22;8134;49.552;7.632;2022-08-01T08:06:49;24.00;91.80
16060;DHT22;8134;49.552;7.632;2022-08-01T08:09:17;24.10;91.30
16060;DHT22;8134;49.552;7.632;2022-08-01T08:11:43;24.10;91.30
16060;DHT22;8134;49.552;7.632;2022-08-01T08:14:09;24.10;91.40
16060;DHT22;8134;49.552;7.632;2022-08-01T08:16:35;24.20;91.50
16060;DHT22;8134;49.552;7.632;2022-08-01T08:19:00;24.20;91.50
16060;DHT22;8134;49.552;7.632;2022-08-01T08:21:26;24.30;91.60
16060;DHT22;8134;49.552;7.632;2022-08-01T08:23:51;24.30;91.40
16060;DHT22;8134;49.552;7.632;2022-08-01T08:26:43;24.30;91.30
16060;DHT22;8134;49.552;7.632;2022-08-01T08:29:09;24.30;91.40
16060;DHT22;8134;49.552;7.632;2022-08-01T08:31:34;24.40;91.30
16060;DHT22;8134;49.552;7.632;2022-08-01T08:33:59;24.30;91.30
16060;DHT22;8134;49.552;7.632;2022-08-01T08:36:25;24.40;91.40
16060;DHT22;8134;49.552;7.632;2022-08-01T08:38:51;24.40;91.40
16060;DHT22;8134;49.552;7.632;2022-08-01T08:41:16;24.40;90.70
16060;DHT22;8134;49.552;7.632;2022-08-01T08:43:42;24.40;90.90
16060;DHT22;8134;49.552;7.632;2022-08-01T08:46:08;24.40;91.20
16060;DHT22;8134;49.552;7.632;2022-08-01T08:48:33;24.50;90.90
16060;DHT22;8134;49.552;7.632;2022-08-01T08:50:59;24.50;90.80
16060;DHT22;8134;49.552;7.632;2022-08-01T08:53:25;24.60;90.60
16060;DHT22;8134;49.552;7.632;2022-08-01T08:55:51;24.60;90.20
16060;DHT22;8134;49.552;7.632;2022-08-01T08:58:17;24.70;90.10
16060;DHT22;8134;49.552;7.632;2022-08-01T09:00:43;24.70;89.50
16060;DHT22;8134;49.552;7.632;2022-08-01T09:03:08;24.80;88.90
16060;DHT22;8134;49.552;7.632;2022-08-01T09:05:34;24.80;88.80
16060;DHT22;8134;49.552;7.632;2022-08-01T09:08:00;24.80;89.30
16060;DHT22;8134;49.552;7.632;2022-08-01T09:10:25;24.70;88.60
16060;DHT22;8134;49.552;7.632;2022-08-01T09:15:42;24.70;89.90
16060;DHT22;8134;49.552;7.632;2022-08-01T09:18:09;24.70;89.80
16060;DHT22;8134;49.552;7.632;2022-08-01T09:20:50;24.70;90.00
16060;DHT22;8134;49.552;7.632;2022-08-01T09:23:30;24.70;89.30
16060;DHT22;8134;49.552;7.632;2022-08-01T09:25:56;24.70;89.40
16060;DHT22;8134;49.552;7.632;2022-08-01T09:28:26;24.80;89.20
16060;DHT22;8134;49.552;7.632;2022-08-01T09:30:52;24.80;89.30
16060;DHT22;8134;49.552;7.632;2022-08-01T09:33:17;24.80;88.20
16060;DHT22;8134;49.552;7.632;2022-08-01T09:35:43;24.80;89.30
16060;DHT22;8134;49.552;7.632;2022-08-01T09:40:45;24.90;89.00
16060;DHT22;8134;49.552;7.632;2022-08-01T09:43:11;25.00;89.50
16060;DHT22;8134;49.552;7.632;2022-08-01T09:45:37;25.10;89.10
16060;DHT22;8134;49.552;7.632;2022-08-01T09:48:09;25.20;88.60
16060;DHT22;8134;49.552;7.632;2022-08-01T09:50:39;25.30;88.40
16060;DHT22;8134;49.552;7.632;2022-08-01T09:53:04;25.30;87.40
16060;DHT22;8134;49.552;7.632;2022-08-01T09:55:30;25.30;87.40
16060;DHT22;8134;49.552;7.632;2022-08-01T09:57:56;25.30;87.40
16060;DHT22;8134;49.552;7.632;2022-08-01T10:00:23;25.40;86.70
16060;DHT22;8134;49.552;7.632;2022-08-01T10:02:49;25.50;86.00
16060;DHT22;8134;49.552;7.632;2022-08-01T10:05:14;25.60;85.50
16060;DHT22;8134;49.552;7.632;2022-08-01T10:07:55;25.70;84.90
16060;DHT22;8134;49.552;7.632;2022-08-01T10:10:21;25.70;84.60
16060;DHT22;8134;49.552;7.632;2022-08-01T10:12:47;25.70;85.30
16060;DHT22;8134;49.552;7.632;2022-08-01T10:15:17;25.80;84.60
16060;DHT22;8134;49.552;7.632;2022-08-01T10:17:46;25.70;84.00
16060;DHT22;8134;49.552;7.632;2022-08-01T10:20:11;25.60;84.20
16060;DHT22;8134;49.552;7.632;2022-08-01T10:22:38;25.50;83.90
16060;DHT22;8134;49.552;7.632;2022-08-01T10:25:04;25.50;85.00
16060;DHT22;8134;49.552;7.632;2022-08-01T10:27:31;25.50;84.60
16060;DHT22;8134;49.552;7.632;2022-08-01T10:29:58;25.50;84.70
16060;DHT22;8134;49.552;7.632;2022-08-01T10:32:29;25.50;85.60
16060;DHT22;8134;49.552;7.632;2022-08-01T10:34:55;25.60;85.20
16060;DHT22;8134;49.552;7.632;2022-08-01T10:37:20;25.70;85.50
16060;DHT22;8134;49.552;7.632;2022-08-01T10:39:46;25.70;84.10
16060;DHT22;8134;49.552;7.632;2022-08-01T10:42:12;25.80;83.30
16060;DHT22;8134;49.552;7.632;2022-08-01T10:44:38;25.90;82.80
16060;DHT22;8134;49.552;7.632;2022-08-01T10:47:09;25.90;82.90
16060;DHT22;8134;49.552;7.632;2022-08-01T10:49:36;26.00;82.00
16060;DHT22;8134;49.552;7.632;2022-08-01T10:52:04;26.00;82.60
16060;DHT22;8134;49.552;7.632;2022-08-01T10:54:30;26.00;81.70
16060;DHT22;8134;49.552;7.632;2022-08-01T10:57:03;26.10;82.60
16060;DHT22;8134;49.552;7.632;2022-08-01T10:59:31;26.20;81.60
16060;DHT22;8134;49.552;7.632;2022-08-01T11:02:00;26.30;81.20
16060;DHT22;8134;49.552;7.632;2022-08-01T11:07:07;26.40;81.60
16060;DHT22;8134;49.552;7.632;2022-08-01T11:09:40;26.50;80.70
16060;DHT22;8134;49.552;7.632;2022-08-01T11:14:34;26.60;81.80
16060;DHT22;8134;49.552;7.632;2022-08-01T11:17:38;26.60;80.50
16060;DHT22;8134;49.552;7.632;2022-08-01T11:20:11;26.60;81.00
16060;DHT22;8134;49.552;7.632;2022-08-01T11:25:21;26.60;80.10
16060;DHT22;8134;49.552;7.632;2022-08-01T11:27:47;26.60;80.40
16060;DHT22;8134;49.552;7.632;2022-08-01T11:32:48;26.60;79.70
16060;DHT22;8134;49.552;7.632;2022-08-01T11:35:14;26.60;80.70
16060;DHT22;8134;49.552;7.632;2022-08-01T11:37:40;26.70;80.30
16060;DHT22;8134;49.552;7.632;2022-08-01T11:40:19;26.90;80.00
16060;DHT22;8134;49.552;7.632;2022-08-01T11:42:45;27.10;80.30
16060;DHT22;8134;49.552;7.632;2022-08-01T11:45:10;27.30;79.80
16060;DHT22;8134;49.552;7.632;2022-08-01T11:53:47;27.50;77.00
16060;DHT22;8134;49.552;7.632;2022-08-01T11:56:36;27.60;77.60
16060;DHT22;8134;49.552;7.632;2022-08-01T12:30:06;27.00;76.60
16060;DHT22;8134;49.552;7.632;2022-08-01T12:32:33;27.00;77.30
16060;DHT22;8134;49.552;7.632;2022-08-01T12:37:27;27.10;76.30
16060;DHT22;8134;49.552;7.632;2022-08-01T15:57:24;26.00;80.60
16060;DHT22;8134;49.552;7.632;2022-08-01T15:59:49;26.00;81.70
16060;DHT22;8134;49.552;7.632;2022-08-01T16:05:06;26.10;81.50
16060;DHT22;8134;49.552;7.632;2022-08-01T16:07:42;26.30;81.30
16060;DHT22;8134;49.552;7.632;2022-08-01T16:10:10;26.40;81.40
16060;DHT22;8134;49.552;7.632;2022-08-01T16:12:36;26.50;80.70
16060;DHT22;8134;49.552;7.632;2022-08-01T16:15:01;26.60;80.50
16060;DHT22;8134;49.552;7.632;2022-08-01T16:17:27;26.60;80.40
16060;DHT22;8134;49.552;7.632;2022-08-01T16:19:53;26.60;80.30
16060;DHT22;8134;49.552;7.632;2022-08-01T16:22:18;26.70;80.60
16060;DHT22;8134;49.552;7.632;2022-08-01T16:24:44;26.80;80.00
16060;DHT22;8134;49.552;7.632;2022-08-01T16:27:10;26.80;80.50
16060;DHT22;8134;49.552;7.632;2022-08-01T16:29:35;26.80;80.50
16060;DHT22;8134;49.552;7.632;2022-08-01T16:32:01;26.90;80.40
16060;DHT22;8134;49.552;7.632;2022-08-01T16:34:27;26.90;79.90
16060;DHT22;8134;49.552;7.632;2022-08-01T16:36:52;26.90;80.10
16060;DHT22;8134;49.552;7.632;2022-08-01T16:39:19;26.90;80.00
16060;DHT22;8134;49.552;7.632;2022-08-01T16:41:46;27.00;79.50
16060;DHT22;8134;49.552;7.632;2022-08-01T16:44:11;27.00;79.60
16060;DHT22;8134;49.552;7.632;2022-08-01T16:46:37;26.90;79.50
16060;DHT22;8134;49.552;7.632;2022-08-01T16:49:02;26.90;79.10
16060;DHT22;8134;49.552;7.632;2022-08-01T16:51:28;26.90;79.50
16060;DHT22;8134;49.552;7.632;2022-08-01T16:53:53;26.90;79.50
16060;DHT22;8134;49.552;7.632;2022-08-01T16:56:19;26.90;79.30
16060;DHT22;8134;49.552;7.632;2022-08-01T16:58:45;26.90;79.50
16060;DHT22;8134;49.552;7.632;2022-08-01T17:01:11;26.80;79.50
16060;DHT22;8134;49.552;7.632;2022-08-01T17:03:36;26.90;79.70
16060;DHT22;8134;49.552;7.632;2022-08-01T17:06:02;26.80;79.70
16060;DHT22;8134;49.552;7.632;2022-08-01T17:08:28;26.80;79.70
16060;DHT22;8134;49.552;7.632;2022-08-01T17:10:54;26.80;79.60
16060;DHT22;8134;49.552;7.632;2022-08-01T17:13:19;26.80;79.30
16060;DHT22;8134;49.552;7.632;2022-08-01T17:15:48;26.80;79.60
16060;DHT22;8134;49.552;7.632;2022-08-01T17:18:15;26.80;79.70
16060;DHT22;8134;49.552;7.632;2022-08-01T17:20:42;26.80;79.80
16060;DHT22;8134;49.552;7.632;2022-08-01T17:23:09;26.80;79.60
16060;DHT22;8134;49.552;7.632;2022-08-01T17:25:35;26.90;79.90
16060;DHT22;8134;49.552;7.632;2022-08-01T17:28:00;26.90;79.90
16060;DHT22;8134;49.552;7.632;2022-08-01T17:30:26;26.90;80.10
16060;DHT22;8134;49.552;7.632;2022-08-01T17:32:51;26.90;80.30
16060;DHT22;8134;49.552;7.632;2022-08-01T17:35:17;26.90;79.80
16060;DHT22;8134;49.552;7.632;2022-08-01T17:37:43;26.80;79.80
16060;DHT22;8134;49.552;7.632;2022-08-01T17:40:08;26.70;80.20
16060;DHT22;8134;49.552;7.632;2022-08-01T17:42:34;26.70;80.60
16060;DHT22;8134;49.552;7.632;2022-08-01T17:45:00;26.70;80.30
16060;DHT22;8134;49.552;7.632;2022-08-01T17:47:25;26.70;80.30
16060;DHT22;8134;49.552;7.632;2022-08-01T18:17:12;25.40;84.30
16060;DHT22;8134;49.552;7.632;2022-08-01T18:19:38;25.30;84.60
16060;DHT22;8134;49.552;7.632;2022-08-01T18:22:03;25.30;84.20
16060;DHT22;8134;49.552;7.632;2022-08-01T18:24:29;25.40;84.20
16060;DHT22;8134;49.552;7.632;2022-08-01T18:26:54;25.50;83.80
16060;DHT22;8134;49.552;7.632;2022-08-01T18:29:22;25.60;83.70
16060;DHT22;8134;49.552;7.632;2022-08-01T18:31:48;25.60;83.30
16060;DHT22;8134;49.552;7.632;2022-08-01T18:34:15;25.70;83.60
16060;DHT22;8134;49.552;7.632;2022-08-01T18:36:41;25.80;83.00
16060;DHT22;8134;49.552;7.632;2022-08-01T18:39:07;25.80;83.00
16060;DHT22;8134;49.552;7.632;2022-08-01T18:41:34;25.80;83.00
16060;DHT22;8134;49.552;7.632;2022-08-01T18:44:00;25.80;82.80
16060;DHT22;8134;49.552;7.632;2022-08-01T18:46:26;25.80;82.90
16060;DHT22;8134;49.552;7.632;2022-08-01T18:48:51;25.70;82.60
16060;DHT22;8134;49.552;7.632;2022-08-01T18:51:17;25.70;83.00
16060;DHT22;8134;49.552;7.632;2022-08-01T18:53:42;25.70;82.50
16060;DHT22;8134;49.552;7.632;2022-08-01T18:56:08;25.60;82.20
16060;DHT22;8134;49.552;7.632;2022-08-01T18:58:37;25.60;82.30
16060;DHT22;8134;49.552;7.632;2022-08-01T19:01:03;25.60;82.10
16060;DHT22;8134;49.552;7.632;2022-08-01T19:03:29;25.50;82.40
16060;DHT22;8134;49.552;7.632;2022-08-01T19:05:54;25.50;81.70
16060;DHT22;8134;49.552;7.632;2022-08-01T19:08:20;25.50;81.90
16060;DHT22;8134;49.552;7.632;2022-08-01T19:10:45;25.50;82.60
16060;DHT22;8134;49.552;7.632;2022-08-01T19:13:11;25.50;82.80
16060;DHT22;8134;49.552;7.632;2022-08-01T19:15:36;25.50;82.30
16060;DHT22;8134;49.552;7.632;2022-08-01T19:18:02;25.40;83.00
16060;DHT22;8134;49.552;7.632;2022-08-01T19:20:28;25.40;83.00
16060;DHT22;8134;49.552;7.632;2022-08-01T19:22:54;25.30;83.20
16060;DHT22;8134;49.552;7.632;2022-08-01T19:25:19;25.20;83.50
16060;DHT22;8134;49.552;7.632;2022-08-01T19:27:45;25.10;84.10
16060;DHT22;8134;49.552;7.632;2022-08-01T19:30:12;25.00;84.70
16060;DHT22;8134;49.552;7.632;2022-08-01T19:32:38;24.90;84.30
16060;DHT22;8134;49.552;7.632;2022-08-01T19:35:06;24.80;84.20
16060;DHT22;8134;49.552;7.632;2022-08-01T19:37:32;24.70;84.40
16060;DHT22;8134;49.552;7.632;2022-08-01T19:39:58;24.60;84.50
16060;DHT22;8134;49.552;7.632;2022-08-01T19:42:24;24.60;84.80
16060;DHT22;8134;49.552;7.632;2022-08-01T19:44:50;24.40;84.80
16060;DHT22;8134;49.552;7.632;2022-08-01T19:47:16;24.40;85.00
16060;DHT22;8134;49.552;7.632;2022-08-01T19:49:42;24.30;85.50
16060;DHT22;8134;49.552;7.632;2022-08-01T19:52:08;24.20;85.30
16060;DHT22;8134;49.552;7.632;2022-08-01T19:54:34;24.20;85.40
16060;DHT22;8134;49.552;7.632;2022-08-01T19:57:01;24.10;85.30
16060;DHT22;8134;49.552;7.632;2022-08-01T19:59:27;24.10;85.60
16060;DHT22;8134;49.552;7.632;2022-08-01T20:01:55;24.00;85.70
16060;DHT22;8134;49.552;7.632;2022-08-01T20:04:22;23.90;85.70
16060;DHT22;8134;49.552;7.632;2022-08-01T20:06:48;23.80;86.00
16060;DHT22;8134;49.552;7.632;2022-08-01T20:09:14;23.70;86.30
16060;DHT22;8134;49.552;7.632;2022-08-01T20:11:47;23.70;86.20
16060;DHT22;8134;49.552;7.632;2022-08-01T20:14:16;23.60;86.40
16060;DHT22;8134;49.552;7.632;2022-08-01T20:16:42;23.50;86.60
16060;DHT22;8134;49.552;7.632;2022-08-01T20:19:07;23.50;86.90
16060;DHT22;8134;49.552;7.632;2022-08-01T20:21:33;23.40;87.10
16060;DHT22;8134;49.552;7.632;2022-08-01T20:23:59;23.40;87.50
16060;DHT22;8134;49.552;7.632;2022-08-01T20:26:26;23.30;87.60
16060;DHT22;8134;49.552;7.632;2022-08-01T20:28:52;23.20;87.60
16060;DHT22;8134;49.552;7.632;2022-08-01T20:31:18;23.10;87.90
16060;DHT22;8134;49.552;7.632;2022-08-01T20:33:46;23.10;88.10
16060;DHT22;8134;49.552;7.632;2022-08-01T20:36:12;23.00;88.50
16060;DHT22;8134;49.552;7.632;2022-08-01T20:38:41;22.90;88.60
16060;DHT22;8134;49.552;7.632;2022-08-01T20:41:07;22.90;88.80
16060;DHT22;8134;49.552;7.632;2022-08-01T20:43:33;22.90;88.80
16060;DHT22;8134;49.552;7.632;2022-08-01T20:46:00;22.80;88.90
16060;DHT22;8134;49.552;7.632;2022-08-01T20:48:26;22.80;88.80
16060;DHT22;8134;49.552;7.632;2022-08-01T20:50:52;22.70;89.30
16060;DHT22;8134;49.552;7.632;2022-08-01T20:53:37;22.70;89.50
16060;DHT22;8134;49.552;7.632;2022-08-01T20:56:07;22.60;89.90
16060;DHT22;8134;49.552;7.632;2022-08-01T21:01:21;22.50;90.00
16060;DHT22;8134;49.552;7.632;2022-08-01T21:06:36;22.40;90.20
16060;DHT22;8134;49.552;7.632;2022-08-01T21:09:04;22.40;90.20
16060;DHT22;8134;49.552;7.632;2022-08-01T21:11:56;22.40;90.30
16060;DHT22;8134;49.552;7.632;2022-08-01T21:14:18;22.40;90.40
16060;DHT22;8134;49.552;7.632;2022-08-01T21:16:45;22.30;90.40
16060;DHT22;8134;49.552;7.632;2022-08-01T21:19:12;22.30;90.50
16060;DHT22;8134;49.552;7.632;2022-08-01T21:21:41;22.20;90.50
16060;DHT22;8134;49.552;7.632;2022-08-01T21:24:16;22.20;90.60
16060;DHT22;8134;49.552;7.632;2022-08-01T21:26:43;22.20;90.70
16060;DHT22;8134;49.552;7.632;2022-08-01T21:29:10;22.10;90.80
16060;DHT22;8134;49.552;7.632;2022-08-01T21:31:35;22.10;90.80
16060;DHT22;8134;49.552;7.632;2022-08-01T21:34:03;22.00;90.90
16060;DHT22;8134;49.552;7.632;2022-08-01T21:36:30;22.00;91.00
16060;DHT22;8134;49.552;7.632;2022-08-01T21:38:56;21.90;91.10
16060;DHT22;8134;49.552;7.632;2022-08-01T21:41:21;21.90;91.10
16060;DHT22;8134;49.552;7.632;2022-08-01T21:43:48;21.80;91.20
16060;DHT22;8134;49.552;7.632;2022-08-01T21:46:15;21.80;91.10
16060;DHT22;8134;49.552;7.632;2022-08-01T21:48:43;21.80;91.30
16060;DHT22;8134;49.552;7.632;2022-08-01T21:54:06;21.70;91.30
16060;DHT22;8134;49.552;7.632;2022-08-01T21:56:39;21.70;91.30
16060;DHT22;8134;49.552;7.632;2022-08-01T22:01:42;21.60;91.30
16060;DHT22;8134;49.552;7.632;2022-08-01T22:04:16;21.60;91.40
16060;DHT22;8134;49.552;7.632;2022-08-01T22:06:43;21.50;91.40
